createdAt,value
2023-08-10T00:00:33.493Z,0.40
2023-08-10T00:03:00.910Z,0.38
2023-08-10T00:05:28.946Z,0.40
2023-08-10T00:07:56.439Z,0.60
2023-08-10T00:10:23.668Z,1.00
2023-08-10T00:12:50.856Z,1.27
2023-08-10T00:15:18.771Z,0.60
2023-08-10T00:17:46.010Z,0.65
2023-08-10T00:20:13.155Z,0.80
2023-08-10T00:22:40.317Z,0.95
2023-08-10T00:25:09.062Z,1.40
2023-08-10T00:27:39.939Z,0.98
2023-08-10T00:30:09.600Z,0.63
2023-08-10T00:32:38.456Z,0.60
2023-08-10T00:35:06.015Z,1.08
2023-08-10T00:37:33.164Z,0.52
2023-08-10T00:40:00.304Z,1.25
2023-08-10T00:42:27.443Z,1.02
2023-08-10T00:44:55.610Z,1.13
2023-08-10T00:47:22.992Z,0.25
2023-08-10T00:49:50.539Z,0.70
2023-08-10T00:52:18.382Z,0.45
2023-08-10T00:54:46.547Z,1.05
2023-08-10T00:57:13.843Z,0.47
2023-08-10T00:59:42.077Z,0.70
2023-08-10T01:02:10.793Z,0.63
2023-08-10T01:04:40.226Z,0.85
2023-08-10T01:07:39.034Z,0.85
2023-08-10T01:10:38.826Z,1.10
2023-08-10T01:13:17.811Z,0.73
2023-08-10T01:15:50.968Z,1.05
2023-08-10T01:18:23.795Z,0.88
2023-08-10T01:20:52.375Z,0.60
2023-08-10T01:23:33.261Z,1.10
2023-08-10T01:26:00.924Z,0.40
2023-08-10T01:28:28.603Z,0.68
2023-08-10T01:30:56.110Z,1.83
2023-08-10T01:33:23.344Z,0.80
2023-08-10T01:35:50.414Z,0.55
2023-08-10T01:38:17.622Z,1.02
2023-08-10T01:40:44.944Z,0.45
2023-08-10T01:43:12.097Z,0.98
2023-08-10T01:45:41.422Z,0.77
2023-08-10T01:48:13.606Z,1.15
2023-08-10T01:50:45.974Z,0.88
2023-08-10T01:53:18.814Z,0.95
2023-08-10T01:55:46.496Z,0.70
2023-08-10T01:58:14.241Z,0.60
2023-08-10T02:00:42.130Z,0.63
2023-08-10T02:03:09.367Z,0.60
2023-08-10T02:05:36.525Z,1.38
2023-08-10T02:08:03.911Z,0.95
2023-08-10T02:10:31.031Z,0.52
2023-08-10T02:12:58.181Z,0.50
2023-08-10T02:15:26.008Z,1.15
2023-08-10T02:17:53.213Z,0.70
2023-08-10T02:20:20.470Z,0.70
2023-08-10T02:22:52.129Z,1.02
2023-08-10T02:25:24.178Z,0.90
2023-08-10T02:27:54.252Z,1.27
2023-08-10T02:30:22.016Z,0.90
2023-08-10T02:32:49.370Z,1.50
2023-08-10T02:35:16.698Z,0.60
2023-08-10T02:37:44.096Z,0.77
2023-08-10T02:40:13.028Z,0.65
2023-08-10T02:42:41.591Z,0.82
2023-08-10T02:45:09.374Z,1.10
2023-08-10T02:47:37.198Z,0.73
2023-08-10T02:50:07.172Z,0.88
2023-08-10T02:52:35.280Z,0.60
2023-08-10T02:55:02.638Z,1.17
2023-08-10T02:57:30.380Z,0.80
2023-08-10T02:59:57.777Z,1.13
2023-08-10T03:02:26.070Z,0.43
2023-08-10T03:04:53.382Z,0.95
2023-08-10T03:07:21.080Z,0.60
2023-08-10T03:09:48.810Z,0.47
2023-08-10T03:12:15.899Z,1.15
2023-08-10T03:14:43.875Z,0.38
2023-08-10T03:17:11.992Z,1.30
2023-08-10T03:19:39.196Z,1.20
2023-08-10T03:22:07.268Z,0.38
2023-08-10T03:24:37.904Z,0.52
2023-08-10T03:27:05.794Z,0.60
2023-08-10T03:29:33.135Z,0.65
2023-08-10T03:32:00.378Z,0.47
2023-08-10T03:34:27.738Z,0.63
2023-08-10T03:36:55.584Z,1.10
2023-08-10T03:39:22.792Z,0.70
2023-08-10T03:41:50.021Z,0.90
2023-08-10T03:44:17.819Z,0.40
2023-08-10T03:46:45.100Z,0.47
2023-08-10T03:49:12.287Z,1.95
2023-08-10T03:51:39.446Z,0.40
2023-08-10T03:54:06.646Z,0.43
2023-08-10T03:56:33.852Z,1.98
2023-08-10T03:59:01.953Z,1.15
2023-08-10T04:01:29.091Z,0.70
2023-08-10T04:03:56.316Z,1.10
2023-08-10T04:06:23.945Z,1.23
2023-08-10T04:08:51.264Z,0.73
2023-08-10T04:11:18.500Z,0.90
2023-08-10T04:13:45.620Z,0.88
2023-08-10T04:16:13.504Z,0.70
2023-08-10T04:18:40.969Z,0.55
2023-08-10T04:21:08.204Z,1.63
2023-08-10T04:23:35.389Z,0.93
2023-08-10T04:26:02.452Z,0.65
2023-08-10T04:28:31.664Z,0.47
2023-08-10T04:30:59.003Z,1.17
2023-08-10T04:33:26.338Z,2.88
2023-08-10T04:35:54.218Z,1.63
2023-08-10T04:38:21.333Z,0.90
2023-08-10T04:40:48.484Z,0.47
2023-08-10T04:43:15.563Z,0.98
2023-08-10T04:45:43.430Z,1.10
2023-08-10T04:48:11.790Z,1.10
2023-08-10T04:50:38.860Z,0.68
2023-08-10T04:53:06.011Z,1.38
2023-08-10T04:55:33.104Z,0.40
2023-08-10T04:58:00.308Z,1.15
2023-08-10T05:00:27.832Z,1.25
2023-08-10T05:02:55.026Z,0.90
2023-08-10T05:05:23.134Z,0.85
2023-08-10T05:07:50.280Z,0.52
2023-08-10T05:10:17.506Z,0.50
2023-08-10T05:12:46.465Z,1.05
2023-08-10T05:15:15.326Z,1.17
2023-08-10T05:17:42.908Z,0.73
2023-08-10T05:20:14.165Z,0.50
2023-08-10T05:22:43.784Z,0.60
2023-08-10T05:25:14.523Z,0.85
2023-08-10T05:27:43.193Z,0.63
2023-08-10T05:30:13.347Z,0.80
2023-08-10T05:32:43.838Z,1.05
2023-08-10T05:35:11.769Z,0.40
2023-08-10T05:37:42.287Z,0.60
2023-08-10T05:40:12.543Z,0.88
2023-08-10T05:42:43.582Z,0.90
2023-08-10T05:45:17.109Z,1.13
2023-08-10T05:47:46.335Z,0.50
2023-08-10T05:50:15.177Z,0.60
2023-08-10T05:52:44.470Z,0.52
2023-08-10T05:55:12.388Z,0.60
2023-08-10T05:57:40.790Z,0.65
2023-08-10T06:00:11.203Z,0.88
2023-08-10T06:02:38.386Z,0.85
2023-08-10T06:05:07.867Z,0.45
2023-08-10T06:07:35.821Z,0.40
2023-08-10T06:10:03.287Z,0.38
2023-08-10T06:12:30.531Z,0.68
2023-08-10T06:14:57.645Z,0.55
2023-08-10T06:17:24.869Z,0.30
2023-08-10T06:19:53.546Z,0.20
2023-08-10T06:22:21.204Z,0.17
2023-08-10T06:24:48.427Z,0.90
2023-08-10T06:27:15.597Z,0.35
2023-08-10T06:29:42.782Z,0.40
2023-08-10T06:32:09.975Z,0.20
2023-08-10T06:34:38.230Z,0.30
2023-08-10T06:37:05.420Z,0.50
2023-08-10T06:39:33.056Z,0.88
2023-08-10T06:42:00.287Z,0.77
2023-08-10T06:44:27.418Z,0.40
2023-08-10T06:46:54.726Z,0.47
2023-08-10T06:49:22.712Z,1.65
2023-08-10T06:51:52.252Z,0.63
2023-08-10T06:54:19.641Z,0.70
2023-08-10T06:56:46.740Z,1.30
2023-08-10T07:01:44.780Z,0.43
2023-08-10T07:04:12.100Z,0.60
2023-08-10T07:06:39.241Z,1.35
2023-08-10T07:09:06.666Z,1.08
2023-08-10T07:11:33.755Z,1.88
2023-08-10T07:14:00.935Z,1.38
2023-08-10T07:16:28.247Z,1.42
2023-08-10T07:18:55.378Z,1.98
2023-08-10T07:21:23.630Z,2.17
2023-08-10T07:23:50.754Z,1.88
2023-08-10T07:26:17.898Z,1.67
2023-08-10T07:28:46.674Z,1.15
2023-08-10T07:31:14.013Z,2.47
2023-08-10T07:33:41.169Z,2.10
2023-08-10T07:36:08.349Z,1.38
2023-08-10T07:38:35.573Z,1.35
2023-08-10T07:41:02.779Z,1.08
2023-08-10T07:43:29.821Z,1.75
2023-08-10T07:45:56.943Z,1.35
2023-08-10T07:48:24.056Z,1.40
2023-08-10T07:50:51.328Z,1.73
2023-08-10T07:53:18.383Z,2.50
2023-08-10T07:55:45.493Z,1.67
2023-08-10T07:58:13.766Z,2.55
2023-08-10T08:00:41.513Z,1.67
2023-08-10T08:03:09.809Z,1.88
2023-08-10T08:05:39.077Z,2.97
2023-08-10T08:08:07.942Z,2.15
2023-08-10T08:10:38.269Z,2.63
2023-08-10T08:13:07.686Z,4.38
2023-08-10T08:15:36.361Z,3.28
2023-08-10T08:18:39.307Z,2.00
2023-08-10T08:21:06.910Z,2.42
2023-08-10T08:23:34.262Z,2.90
2023-08-10T08:26:01.378Z,3.53
2023-08-10T08:28:28.551Z,4.30
2023-08-10T08:30:55.954Z,4.25
2023-08-10T08:33:23.160Z,2.75
2023-08-10T08:35:50.463Z,2.88
2023-08-10T08:38:19.505Z,4.13
2023-08-10T08:40:49.528Z,2.08
2023-08-10T08:43:18.140Z,3.10
2023-08-10T08:45:46.028Z,3.33
2023-08-10T08:48:17.443Z,3.28
2023-08-10T08:50:48.444Z,4.03
2023-08-10T08:53:15.837Z,4.65
2023-08-10T08:55:43.423Z,2.45
2023-08-10T08:58:10.673Z,4.15
2023-08-10T09:00:39.783Z,3.25
2023-08-10T09:03:07.846Z,3.45
2023-08-10T09:05:35.100Z,4.03
2023-08-10T09:08:03.072Z,2.88
2023-08-10T09:10:30.742Z,2.95
2023-08-10T09:12:58.020Z,2.97
2023-08-10T09:15:28.551Z,2.90
2023-08-10T09:17:55.899Z,2.83
2023-08-10T09:20:30.260Z,2.53
2023-08-10T09:23:00.092Z,3.35
2023-08-10T09:25:28.173Z,3.75
2023-08-10T09:28:01.175Z,3.40
2023-08-10T09:30:34.351Z,3.17
2023-08-10T09:33:01.558Z,3.22
2023-08-10T09:35:31.572Z,2.97
2023-08-10T09:38:05.953Z,3.03
2023-08-10T09:40:33.045Z,2.55
2023-08-10T09:43:00.287Z,2.88
2023-08-10T09:45:27.605Z,3.10
2023-08-10T09:47:55.422Z,2.67
2023-08-10T09:50:22.682Z,2.45
2023-08-10T09:52:50.904Z,3.25
2023-08-10T09:55:18.276Z,2.20
2023-08-10T09:57:46.619Z,3.00
2023-08-10T10:00:24.034Z,2.95
2023-08-10T10:02:53.129Z,2.78
2023-08-10T10:07:51.723Z,2.95
2023-08-10T10:10:19.606Z,2.65
2023-08-10T10:12:51.540Z,2.33
2023-08-10T10:15:20.994Z,2.42
2023-08-10T10:17:53.784Z,2.05
2023-08-10T10:20:22.248Z,2.45
2023-08-10T10:22:50.095Z,3.10
2023-08-10T10:25:21.176Z,1.85
2023-08-10T10:27:53.334Z,2.75
2023-08-10T10:30:24.777Z,2.13
2023-08-10T10:32:53.110Z,2.15
2023-08-10T10:35:25.755Z,1.80
2023-08-10T10:38:00.591Z,2.22
2023-08-10T10:43:05.125Z,3.28
2023-08-10T10:45:35.891Z,2.67
2023-08-10T10:48:04.427Z,2.92
2023-08-10T10:50:32.373Z,2.70
2023-08-10T10:53:04.939Z,2.38
2023-08-10T10:55:35.142Z,1.63
2023-08-10T10:58:07.365Z,1.33
2023-08-10T11:00:37.968Z,2.00
2023-08-10T11:03:07.409Z,3.25
2023-08-10T11:05:35.083Z,2.03
2023-08-10T11:08:06.816Z,3.45
2023-08-10T11:10:37.887Z,1.88
2023-08-10T11:13:10.214Z,2.60
2023-08-10T11:15:40.484Z,1.25
2023-08-10T11:18:18.389Z,1.60
2023-08-10T11:20:52.176Z,2.42
2023-08-10T11:23:19.233Z,1.38
2023-08-10T11:25:51.742Z,1.80
2023-08-10T11:28:21.907Z,1.50
2023-08-10T11:30:50.528Z,1.55
2023-08-10T11:35:52.030Z,1.63
2023-08-10T11:38:19.529Z,2.30
2023-08-10T11:40:47.541Z,1.42
2023-08-10T11:43:17.171Z,1.77
2023-08-10T11:45:44.534Z,1.08
2023-08-10T11:48:13.334Z,1.73
2023-08-10T11:50:41.173Z,1.17
2023-08-10T11:53:13.218Z,2.58
2023-08-10T11:55:44.993Z,1.98
2023-08-10T11:58:16.563Z,1.33
2023-08-10T12:00:49.073Z,1.40
2023-08-10T12:03:35.355Z,2.42
2023-08-10T12:06:08.485Z,1.58
2023-08-10T12:08:41.326Z,2.38
2023-08-10T12:11:10.845Z,1.42
2023-08-10T12:13:46.349Z,2.17
2023-08-10T12:16:15.593Z,1.77
2023-08-10T12:18:42.870Z,1.30
2023-08-10T12:21:10.297Z,1.45
2023-08-10T12:23:37.600Z,0.90
2023-08-10T12:26:05.228Z,1.45
2023-08-10T12:28:32.426Z,0.82
2023-08-10T12:31:00.287Z,1.02
2023-08-10T12:33:27.427Z,0.93
2023-08-10T12:35:54.568Z,1.75
2023-08-10T12:38:21.755Z,1.73
2023-08-10T12:40:48.936Z,1.80
2023-08-10T12:43:16.385Z,2.05
2023-08-10T12:45:43.605Z,1.83
2023-08-10T12:48:10.757Z,1.73
2023-08-10T12:50:37.904Z,2.20
2023-08-10T12:53:05.241Z,1.17
2023-08-10T12:55:33.388Z,1.40
2023-08-10T12:58:00.500Z,1.45
2023-08-10T13:00:27.612Z,1.65
2023-08-10T13:02:54.787Z,1.17
2023-08-10T13:05:22.132Z,1.63
2023-08-10T13:07:49.261Z,1.52
2023-08-10T13:10:16.740Z,0.77
2023-08-10T13:12:47.387Z,1.00
2023-08-10T13:15:14.670Z,1.05
2023-08-10T13:17:41.830Z,0.88
2023-08-10T13:20:09.784Z,1.35
2023-08-10T13:22:38.481Z,1.33
2023-08-10T13:25:07.598Z,1.58
2023-08-10T13:27:35.258Z,2.10
2023-08-10T13:30:02.548Z,1.58
2023-08-10T13:32:29.697Z,1.65
2023-08-10T13:34:57.183Z,1.73
2023-08-10T13:37:24.389Z,2.08
2023-08-10T13:39:51.478Z,1.20
2023-08-10T13:42:18.599Z,0.88
2023-08-10T13:44:45.808Z,2.83
2023-08-10T13:47:13.060Z,1.25
2023-08-10T13:49:54.483Z,1.40
2023-08-10T13:52:24.724Z,1.10
2023-08-10T13:54:52.387Z,1.63
2023-08-10T13:57:20.172Z,1.35
2023-08-10T13:59:48.581Z,0.93
2023-08-10T14:02:16.980Z,1.05
2023-08-10T14:04:44.703Z,1.33
2023-08-10T14:07:13.776Z,1.67
2023-08-10T14:09:42.217Z,1.42
2023-08-10T14:12:09.976Z,1.30
2023-08-10T14:14:37.527Z,1.83
2023-08-10T14:17:04.960Z,1.55
2023-08-10T14:19:32.299Z,4.82
2023-08-10T14:21:59.484Z,0.47
2023-08-10T14:24:26.645Z,1.45
2023-08-10T14:26:53.831Z,1.25
2023-08-10T14:29:21.011Z,1.23
2023-08-10T14:31:48.147Z,1.25
2023-08-10T14:34:15.456Z,1.10
2023-08-10T14:36:42.578Z,0.93
2023-08-10T14:39:09.710Z,1.63
2023-08-10T14:41:36.912Z,0.93
2023-08-10T14:44:04.096Z,1.48
2023-08-10T14:46:31.295Z,1.30
2023-08-10T14:49:00.327Z,0.80
2023-08-10T14:51:27.471Z,1.00
2023-08-10T14:53:54.623Z,0.73
2023-08-10T14:56:21.752Z,1.83
2023-08-10T14:58:48.863Z,0.80
2023-08-10T15:01:16.097Z,0.73
2023-08-10T15:03:43.697Z,0.57
2023-08-10T15:06:10.809Z,1.25
2023-08-10T15:08:37.854Z,0.95
2023-08-10T15:11:06.398Z,1.33
2023-08-10T15:13:34.476Z,1.23
2023-08-10T15:16:02.500Z,1.55
2023-08-10T15:18:29.818Z,0.90
2023-08-10T15:20:57.085Z,0.90
2023-08-10T15:23:41.080Z,1.23
2023-08-10T15:26:11.102Z,0.70
2023-08-10T15:28:38.883Z,0.70
2023-08-10T15:31:10.960Z,1.23
2023-08-10T15:33:39.752Z,1.13
2023-08-10T15:36:07.840Z,1.73
2023-08-10T15:38:35.662Z,1.45
2023-08-10T15:41:06.822Z,1.75
2023-08-10T15:43:34.712Z,3.20
2023-08-10T15:46:01.876Z,1.80
2023-08-10T15:48:29.023Z,0.98
2023-08-10T15:50:56.202Z,0.63
2023-08-10T15:53:23.324Z,1.48
2023-08-10T15:55:50.815Z,1.55
2023-08-10T15:58:18.496Z,1.58
2023-08-10T16:00:46.243Z,1.45
2023-08-10T16:03:13.805Z,1.10
2023-08-10T16:05:41.037Z,1.25
2023-08-10T16:08:08.181Z,1.17
2023-08-10T16:10:35.450Z,1.65
2023-08-10T16:13:02.604Z,1.77
2023-08-10T16:15:30.208Z,1.67
2023-08-10T16:17:57.414Z,1.02
2023-08-10T16:20:24.706Z,1.90
2023-08-10T16:22:51.811Z,1.15
2023-08-10T16:25:18.979Z,1.35
2023-08-10T16:27:46.210Z,1.27
2023-08-10T16:30:13.570Z,1.30
2023-08-10T16:32:40.713Z,0.70
2023-08-10T16:35:08.592Z,1.00
2023-08-10T16:37:35.776Z,0.82
2023-08-10T16:40:04.044Z,0.95
2023-08-10T16:42:31.294Z,1.55
2023-08-10T16:44:58.492Z,0.75
2023-08-10T16:47:25.868Z,0.98
2023-08-10T16:49:53.019Z,0.90
2023-08-10T16:52:20.262Z,0.68
2023-08-10T16:54:47.558Z,0.77
2023-08-10T16:57:15.249Z,0.70
2023-08-10T16:59:42.456Z,0.82
2023-08-10T17:02:09.984Z,0.95
2023-08-10T17:04:37.380Z,0.68
2023-08-10T17:07:04.628Z,0.70
2023-08-10T17:09:31.832Z,0.55
2023-08-10T17:11:59.113Z,0.73
2023-08-10T17:14:26.281Z,0.73
2023-08-10T17:16:53.503Z,0.50
2023-08-10T17:19:20.689Z,0.38
2023-08-10T17:21:47.778Z,0.80
2023-08-10T17:24:14.950Z,0.50
2023-08-10T17:26:42.189Z,0.98
2023-08-10T17:29:19.650Z,0.35
2023-08-10T17:31:48.369Z,0.60
2023-08-10T17:34:15.679Z,0.35
2023-08-10T17:36:42.926Z,0.38
2023-08-10T17:39:10.111Z,0.68
2023-08-10T17:41:37.328Z,0.50
2023-08-10T17:44:04.724Z,0.63
2023-08-10T17:46:31.869Z,0.40
2023-08-10T17:48:59.077Z,0.50
2023-08-10T17:51:28.422Z,0.38
2023-08-10T17:53:55.820Z,0.20
2023-08-10T17:56:23.147Z,0.28
2023-08-10T17:58:50.631Z,0.40
2023-08-10T18:01:18.135Z,0.38
2023-08-10T18:03:47.829Z,0.20
2023-08-10T18:06:15.939Z,0.55
2023-08-10T18:08:43.129Z,0.50
2023-08-10T18:11:12.546Z,0.50
2023-08-10T18:13:39.756Z,0.50
2023-08-10T18:16:07.398Z,0.57
2023-08-10T18:18:34.558Z,0.47
2023-08-10T18:21:02.835Z,0.70
2023-08-10T18:23:30.897Z,0.63
2023-08-10T18:26:01.073Z,1.30
2023-08-10T18:28:28.246Z,1.73
2023-08-10T18:30:56.194Z,0.70
2023-08-10T18:33:23.848Z,1.13
2023-08-10T18:35:51.211Z,1.33
2023-08-10T18:38:18.726Z,0.57
2023-08-10T18:40:45.993Z,1.33
2023-08-10T18:43:13.627Z,1.50
2023-08-10T18:45:40.767Z,0.95
2023-08-10T18:48:08.433Z,1.20
2023-08-10T18:50:35.652Z,1.63
2023-08-10T18:53:02.864Z,1.02
2023-08-10T18:55:30.173Z,1.08
2023-08-10T18:57:57.763Z,1.25
2023-08-10T19:00:25.271Z,1.98
2023-08-10T19:02:52.806Z,1.70
2023-08-10T19:05:20.114Z,2.58
2023-08-10T19:07:47.983Z,2.05
2023-08-10T19:10:15.313Z,1.67
2023-08-10T19:12:42.570Z,1.15
2023-08-10T19:15:10.589Z,1.95
2023-08-10T19:17:41.064Z,2.85
2023-08-10T19:20:09.154Z,1.75
2023-08-10T19:22:36.828Z,1.55
2023-08-10T19:25:05.194Z,0.90
2023-08-10T19:27:32.494Z,1.70
2023-08-10T19:29:59.614Z,1.35
2023-08-10T19:32:26.990Z,1.80
2023-08-10T19:34:54.188Z,1.05
2023-08-10T19:37:21.420Z,1.45
2023-08-10T19:39:49.740Z,2.25
2023-08-10T19:42:17.018Z,2.20
2023-08-10T19:44:44.587Z,1.75
2023-08-10T19:47:11.994Z,1.15
2023-08-10T19:49:40.264Z,2.10
2023-08-10T19:52:08.861Z,1.08
2023-08-10T19:54:36.531Z,1.33
2023-08-10T19:57:04.805Z,1.08
2023-08-10T19:59:32.005Z,1.30
2023-08-10T20:01:59.287Z,1.83
2023-08-10T20:04:26.577Z,0.88
2023-08-10T20:06:53.964Z,1.33
2023-08-10T20:09:21.426Z,1.15
2023-08-10T20:11:48.676Z,1.50
2023-08-10T20:14:16.251Z,1.73
2023-08-10T20:16:43.695Z,2.22
2023-08-10T20:19:10.930Z,1.77
2023-08-10T20:21:38.167Z,1.38
2023-08-10T20:24:05.906Z,0.95
2023-08-10T20:26:33.795Z,1.77
2023-08-10T20:29:00.918Z,2.80
2023-08-10T20:31:28.078Z,1.23
2023-08-10T20:33:55.252Z,1.60
2023-08-10T20:36:22.329Z,2.47
2023-08-10T20:38:49.483Z,1.85
2023-08-10T20:41:16.603Z,1.17
2023-08-10T20:43:43.723Z,1.35
2023-08-10T20:46:25.789Z,2.10
2023-08-10T20:48:53.697Z,2.58
2023-08-10T20:51:22.189Z,2.53
2023-08-10T20:53:51.916Z,1.77
2023-08-10T20:56:19.651Z,2.40
2023-08-10T20:58:47.360Z,2.25
2023-08-10T21:01:16.205Z,2.38
2023-08-10T21:03:46.815Z,1.98
2023-08-10T21:06:14.528Z,2.22
2023-08-10T21:08:42.265Z,2.22
2023-08-10T21:11:09.583Z,1.58
2023-08-10T21:13:36.961Z,2.03
2023-08-10T21:16:04.552Z,2.70
2023-08-10T21:18:31.704Z,1.73
2023-08-10T21:20:59.359Z,1.73
2023-08-10T21:23:27.846Z,1.50
2023-08-10T21:25:55.076Z,2.75
2023-08-10T21:28:22.714Z,1.95
2023-08-10T21:30:49.884Z,1.63
2023-08-10T21:33:17.270Z,2.67
2023-08-10T21:35:44.948Z,1.98
2023-08-10T21:38:12.075Z,2.28
2023-08-10T21:40:39.367Z,1.98
2023-08-10T21:43:08.184Z,2.45
2023-08-10T21:45:35.680Z,2.40
2023-08-10T21:48:02.961Z,2.17
2023-08-10T21:50:30.204Z,2.67
2023-08-10T21:52:57.370Z,1.92
2023-08-10T21:55:24.646Z,1.33
2023-08-10T21:57:51.823Z,1.42
2023-08-10T22:00:23.239Z,2.28
2023-08-10T22:02:51.440Z,1.55
2023-08-10T22:05:18.838Z,1.20
2023-08-10T22:07:45.899Z,1.77
2023-08-10T22:10:13.177Z,1.90
2023-08-10T22:12:40.561Z,2.78
2023-08-10T22:15:11.814Z,2.42
2023-08-10T22:17:38.989Z,2.63
2023-08-10T22:20:16.614Z,2.65
2023-08-10T22:23:01.732Z,1.63
2023-08-10T22:25:32.859Z,3.50
2023-08-10T22:28:05.383Z,1.60
2023-08-10T22:30:36.459Z,2.55
2023-08-10T22:33:04.041Z,2.67
2023-08-10T22:35:31.233Z,1.88
2023-08-10T22:37:58.332Z,2.78
2023-08-10T22:40:25.516Z,2.13
2023-08-10T22:42:52.682Z,2.60
2023-08-10T22:45:19.913Z,2.17
2023-08-10T22:47:47.177Z,2.25
2023-08-10T22:50:14.855Z,3.15
2023-08-10T22:52:43.286Z,1.60
2023-08-10T22:55:11.448Z,1.45
2023-08-10T22:57:39.465Z,1.83
2023-08-10T23:00:07.324Z,3.40
2023-08-10T23:02:35.012Z,2.10
2023-08-10T23:05:02.741Z,1.48
2023-08-10T23:07:29.864Z,1.83
2023-08-10T23:09:57.106Z,1.15
2023-08-10T23:12:26.875Z,2.38
2023-08-10T23:14:55.054Z,1.73
2023-08-10T23:17:22.798Z,2.05
2023-08-10T23:19:50.168Z,2.30
2023-08-10T23:22:17.311Z,1.63
2023-08-10T23:24:44.471Z,1.98
2023-08-10T23:27:11.561Z,3.28
2023-08-10T23:29:39.204Z,2.40
2023-08-10T23:32:13.776Z,1.55
2023-08-10T23:34:41.750Z,1.65
2023-08-10T23:37:09.914Z,1.88
2023-08-10T23:39:37.356Z,1.88
2023-08-10T23:42:07.363Z,2.22
2023-08-10T23:44:36.112Z,1.75
2023-08-10T23:47:15.814Z,1.33
2023-08-10T23:49:44.811Z,2.03
2023-08-10T23:52:12.069Z,2.47
2023-08-10T23:54:39.162Z,2.92
2023-08-10T23:57:06.729Z,2.45
2023-08-10T23:59:34.480Z,2.47
